createdAt,value
2018-06-24T00:00:25.531Z,78.17
2018-06-24T00:01:05.976Z,78.07
2018-06-24T00:01:46.339Z,77.97
2018-06-24T00:02:26.704Z,78.17
2018-06-24T00:03:07.185Z,77.88
2018-06-24T00:03:47.552Z,77.88
2018-06-24T00:04:27.945Z,77.88
2018-06-24T00:05:08.330Z,77.4
2018-06-24T00:05:48.800Z,77.78
2018-06-24T00:06:30.059Z,77.78
2018-06-24T00:07:10.464Z,77.78
2018-06-24T00:07:50.916Z,77.97
2018-06-24T00:08:31.267Z,77.88
2018-06-24T00:09:11.718Z,78.07
2018-06-24T00:09:52.098Z,77.59
2018-06-24T00:10:32.435Z,78.07
2018-06-24T00:11:12.854Z,77.59
2018-06-24T00:11:53.251Z,77.97
2018-06-24T00:12:33.716Z,77.88
2018-06-24T00:13:14.087Z,77.78
2018-06-24T00:13:54.529Z,78.07
2018-06-24T00:14:34.898Z,77.97
2018-06-24T00:15:15.261Z,77.88
2018-06-24T00:15:55.683Z,77.5
2018-06-24T00:16:36.128Z,77.78
2018-06-24T00:17:16.481Z,77.97
2018-06-24T00:17:56.839Z,78.17
2018-06-24T00:18:37.293Z,78.07
2018-06-24T00:19:17.659Z,78.36
2018-06-24T00:19:58.112Z,78.55
2018-06-24T00:20:38.464Z,78.55
2018-06-24T00:21:18.918Z,78.45
2018-06-24T00:21:59.343Z,78.45
2018-06-24T00:22:39.655Z,78.27
2018-06-24T00:23:20.107Z,78.36
2018-06-24T00:24:00.514Z,78.45
2018-06-24T00:24:40.914Z,78.45
2018-06-24T00:25:21.298Z,78.36
2018-06-24T00:26:01.681Z,78.36
2018-06-24T00:26:42.074Z,78.51
2018-06-24T00:27:22.475Z,78.61
2018-06-24T00:28:02.955Z,78.99
2018-06-24T00:28:43.337Z,78.8
2018-06-24T00:29:23.704Z,79.08
2018-06-24T00:30:04.071Z,79.57
2018-06-24T00:30:44.511Z,79.47
2018-06-24T00:31:24.849Z,79.37
2018-06-24T00:32:05.341Z,79.75
2018-06-24T00:32:45.724Z,79.66
2018-06-24T00:33:26.089Z,79.85
2018-06-24T00:34:06.545Z,79.47
2018-06-24T00:34:47.000Z,79.75
2018-06-24T00:35:27.444Z,80.04
2018-06-24T00:36:07.795Z,80.24
2018-06-24T00:36:48.216Z,79.95
2018-06-24T00:37:28.623Z,79.85
2018-06-24T00:38:09.065Z,79.95
2018-06-24T00:38:49.458Z,80.14
2018-06-24T00:39:29.817Z,80.14
2018-06-24T00:40:10.208Z,79.75
2018-06-24T00:40:50.587Z,79.95
2018-06-24T00:41:31.037Z,80.14
2018-06-24T00:42:11.375Z,80.62
2018-06-24T00:42:51.866Z,79.95
2018-06-24T00:43:32.204Z,79.95
2018-06-24T00:44:12.561Z,80.04
2018-06-24T00:44:52.955Z,79.47
2018-06-24T00:45:33.392Z,79.47
2018-06-24T00:46:13.773Z,79.95
2018-06-24T00:46:54.213Z,79.95
2018-06-24T00:47:34.569Z,80.04
2018-06-24T00:48:14.995Z,79.95
2018-06-24T00:48:55.425Z,80.04
2018-06-24T00:49:35.787Z,80.04
2018-06-24T00:50:16.220Z,79.75
2018-06-24T00:50:56.650Z,80.14
2018-06-24T00:51:37.011Z,79.47
2018-06-24T00:52:17.393Z,79.66
2018-06-24T00:52:57.818Z,79.57
2018-06-24T00:53:38.185Z,79.66
2018-06-24T00:54:18.609Z,79.47
2018-06-24T00:54:58.965Z,79.08
2018-06-24T00:55:39.461Z,79.08
2018-06-24T00:56:19.749Z,79.51
2018-06-24T00:57:00.193Z,79.18
2018-06-24T00:57:40.682Z,79.22
2018-06-24T00:58:21.051Z,79.51
2018-06-24T00:59:01.443Z,79.13
2018-06-24T00:59:41.769Z,79.03
2018-06-24T01:00:22.164Z,79.41
2018-06-24T01:01:02.640Z,79.13
2018-06-24T01:01:42.979Z,79.51
2018-06-24T01:02:23.454Z,79.28
2018-06-24T01:03:03.830Z,78.99
2018-06-24T01:03:44.155Z,78.99
2018-06-24T01:04:24.606Z,78.93
2018-06-24T01:05:05.011Z,79.13
2018-06-24T01:05:45.399Z,79.13
2018-06-24T01:06:25.792Z,78.74
2018-06-24T01:07:06.219Z,79.47
2018-06-24T01:07:46.635Z,79.13
2018-06-24T01:08:27.101Z,79.03
2018-06-24T01:09:07.485Z,79.03
2018-06-24T01:09:47.866Z,79.03
2018-06-24T01:10:28.305Z,79.03
2018-06-24T01:11:08.701Z,79.7
2018-06-24T01:11:49.109Z,79.6
2018-06-24T01:12:29.564Z,79.6
2018-06-24T01:13:09.888Z,79.7
2018-06-24T01:13:50.347Z,79.57
2018-06-24T01:14:30.799Z,79.6
2018-06-24T01:15:11.169Z,79.66
2018-06-24T01:15:51.657Z,79.89
2018-06-24T01:16:32.042Z,79.66
2018-06-24T01:17:12.464Z,79.6
2018-06-24T01:17:52.854Z,79.7
2018-06-24T01:18:33.229Z,79.66
2018-06-24T01:19:13.669Z,80.04
2018-06-24T01:19:54.026Z,80.18
2018-06-24T01:20:34.412Z,79.7
2018-06-24T01:21:14.844Z,80.24
2018-06-24T01:21:55.261Z,80.04
2018-06-24T01:22:35.784Z,80.18
2018-06-24T01:23:16.027Z,79.85
2018-06-24T01:23:56.445Z,80.14
2018-06-24T01:24:36.834Z,80.27
2018-06-24T01:25:17.273Z,80.66
2018-06-24T01:25:57.672Z,80.56
2018-06-24T01:26:38.082Z,80.56
2018-06-24T01:27:18.515Z,80.71
2018-06-24T01:27:58.936Z,80.66
2018-06-24T01:28:39.333Z,80.56
2018-06-24T01:29:19.728Z,80.66
2018-06-24T01:30:00.119Z,80.18
2018-06-24T01:30:40.531Z,79.7
2018-06-24T01:31:20.960Z,79.7
2018-06-24T01:32:01.391Z,79.13
2018-06-24T01:32:41.807Z,79.13
2018-06-24T01:33:22.217Z,79.03
2018-06-24T01:34:02.649Z,79.03
2018-06-24T01:34:43.005Z,79.22
2018-06-24T01:35:23.396Z,78.45
2018-06-24T01:36:03.840Z,78.36
2018-06-24T01:36:44.228Z,78.36
2018-06-24T01:37:24.560Z,78.64
2018-06-24T01:38:05.014Z,78.45
2018-06-24T01:38:45.432Z,78.17
2018-06-24T01:39:25.806Z,78.17
2018-06-24T01:40:06.181Z,78.74
2018-06-24T01:40:46.633Z,78.74
2018-06-24T01:41:27.043Z,78.93
2018-06-24T01:42:07.396Z,79.03
2018-06-24T01:42:47.767Z,79.13
2018-06-24T01:43:28.218Z,78.93
2018-06-24T01:44:08.719Z,79.51
2018-06-24T01:44:49.007Z,79.03
2018-06-24T01:45:29.438Z,78.93
2018-06-24T01:46:09.794Z,78.97
2018-06-24T01:46:50.184Z,79.03
2018-06-24T01:47:30.673Z,78.84
2018-06-24T01:48:11.002Z,79.16
2018-06-24T01:48:51.421Z,79.07
2018-06-24T01:49:31.837Z,79.16
2018-06-24T01:50:12.189Z,79.26
2018-06-24T01:50:52.658Z,79.13
2018-06-24T01:51:33.094Z,79.51
2018-06-24T01:52:13.471Z,79.51
2018-06-24T01:52:53.919Z,79.7
2018-06-24T01:53:34.275Z,79.74
2018-06-24T01:54:14.711Z,79.89
2018-06-24T01:54:55.111Z,79.51
2018-06-24T01:55:35.544Z,79.03
2018-06-24T01:56:15.856Z,79.55
2018-06-24T01:56:56.332Z,79.74
2018-06-24T01:57:36.728Z,79.7
2018-06-24T01:58:17.122Z,80.32
2018-06-24T01:58:57.541Z,80.6
2018-06-24T01:59:37.882Z,81.52
2018-06-24T02:00:18.434Z,81.62
2018-06-24T02:00:58.720Z,81.43
2018-06-24T02:08:02.827Z,80.94
2018-06-24T02:09:52.269Z,81.52
2018-06-24T02:10:32.286Z,81.71
2018-06-24T02:11:12.642Z,80.94
2018-06-24T02:11:53.056Z,81.13
2018-06-24T02:12:33.493Z,80.76
2018-06-24T02:13:13.957Z,80.79
2018-06-24T02:13:54.273Z,80.99
2018-06-24T02:14:34.718Z,80.99
2018-06-24T02:15:15.105Z,80.99
2018-06-24T02:15:55.533Z,80.99
2018-06-24T02:16:35.900Z,80.7
2018-06-24T02:17:16.320Z,80.41
2018-06-24T02:17:56.716Z,80.22
2018-06-24T02:18:37.128Z,80.12
2018-06-24T02:19:18.228Z,79.93
2018-06-24T02:19:58.673Z,80.6
2018-06-24T02:20:38.979Z,81.52
2018-06-24T02:21:19.432Z,81.56
2018-06-24T02:21:59.793Z,81.33
2018-06-24T02:22:40.205Z,82.14
2018-06-24T02:23:20.642Z,81.56
2018-06-24T02:24:01.005Z,81.62
2018-06-24T02:24:41.419Z,81.33
2018-06-24T02:25:21.822Z,80.76
2018-06-24T02:26:02.250Z,81.08
2018-06-24T02:26:42.598Z,81.37
2018-06-24T02:27:23.019Z,80.79
2018-06-24T02:28:03.481Z,80.79
2018-06-24T02:28:43.861Z,80.51
2018-06-24T02:29:24.287Z,80.6
2018-06-24T02:30:04.691Z,79.83
2018-06-24T02:30:45.093Z,80.03
2018-06-24T02:31:25.480Z,79.74
2018-06-24T02:32:05.918Z,79.45
2018-06-24T02:32:46.280Z,79.55
2018-06-24T02:33:26.711Z,79.16
2018-06-24T02:34:07.071Z,78.69
2018-06-24T02:34:47.440Z,79.36
2018-06-24T02:35:27.875Z,79.16
2018-06-24T02:36:08.239Z,78.78
2018-06-24T02:36:48.693Z,79.11
2018-06-24T02:37:29.049Z,78.92
2018-06-24T02:38:09.469Z,78.82
2018-06-24T02:38:49.880Z,78.82
2018-06-24T02:39:30.239Z,78.63
2018-06-24T02:40:10.656Z,78.53
2018-06-24T02:40:51.099Z,78.82
2018-06-24T02:41:31.555Z,78.63
2018-06-24T02:42:11.954Z,78.92
2018-06-24T02:42:52.300Z,78.44
2018-06-24T02:43:32.714Z,78.15
2018-06-24T02:44:13.158Z,77.86
2018-06-24T02:44:53.545Z,77.86
2018-06-24T02:45:33.988Z,77.86
2018-06-24T02:46:14.393Z,78.05
2018-06-24T02:46:54.803Z,78.05
2018-06-24T02:47:35.210Z,78.05
2018-06-24T02:48:15.650Z,78.05
2018-06-24T02:48:56.037Z,78.63
2018-06-24T02:49:36.414Z,78.34
2018-06-24T02:50:16.792Z,78.53
2018-06-24T02:50:57.188Z,78.82
2018-06-24T02:51:37.549Z,78.53
2018-06-24T02:52:17.947Z,78.72
2018-06-24T02:52:58.367Z,79.39
2018-06-24T02:53:38.770Z,78.92
2018-06-24T02:54:19.173Z,79.01
2018-06-24T02:54:59.594Z,79.74
2018-06-24T02:55:39.964Z,79.83
2018-06-24T02:56:20.282Z,79.74
2018-06-24T02:57:00.762Z,79.36
2018-06-24T02:57:41.155Z,79.74
2018-06-24T02:58:21.488Z,80.12
2018-06-24T02:59:01.965Z,80.32
2018-06-24T02:59:42.355Z,80.03
2018-06-24T03:00:22.763Z,80.41
2018-06-24T03:01:03.180Z,80.12
2018-06-24T03:01:43.542Z,80.03
2018-06-24T03:02:23.883Z,79.93
2018-06-24T03:03:04.270Z,80.03
2018-06-24T03:03:44.761Z,80.7
2018-06-24T03:04:25.157Z,80.6
2018-06-24T03:05:05.560Z,80.51
2018-06-24T03:05:45.927Z,80.51
2018-06-24T03:06:26.363Z,80.6
2018-06-24T03:07:06.762Z,80.51
2018-06-24T03:07:47.201Z,80.7
2018-06-24T03:08:27.574Z,80.7
2018-06-24T03:09:07.945Z,80.32
2018-06-24T03:09:48.333Z,80.7
2018-06-24T03:10:28.761Z,81.13
2018-06-24T03:11:09.202Z,81.56
2018-06-24T03:11:49.525Z,81.43
2018-06-24T03:12:29.969Z,82.04
2018-06-24T03:13:10.356Z,81.66
2018-06-24T03:13:50.732Z,82.52
2018-06-24T03:14:31.189Z,82.57
2018-06-24T03:15:11.570Z,82.76
2018-06-24T03:15:51.967Z,83.05
2018-06-24T03:16:32.357Z,82.48
2018-06-24T03:17:12.775Z,82.76
2018-06-24T03:17:53.151Z,83.05
2018-06-24T03:18:33.564Z,83.63
2018-06-24T03:19:14.004Z,83.15
2018-06-24T03:19:54.363Z,83.05
2018-06-24T03:20:34.792Z,83.34
2018-06-24T03:21:15.171Z,82.86
2018-06-24T03:21:55.624Z,83.15
2018-06-24T03:22:35.987Z,83.05
2018-06-24T03:23:16.352Z,83.44
2018-06-24T03:23:56.786Z,82.96
2018-06-24T03:24:37.131Z,82.86
2018-06-24T03:25:17.637Z,83.15
2018-06-24T03:25:58.049Z,82.48
2018-06-24T03:26:38.452Z,82.52
2018-06-24T03:27:18.851Z,82.81
2018-06-24T03:27:59.283Z,82.32
2018-06-24T03:28:39.682Z,82.19
2018-06-24T03:29:20.059Z,82.04
2018-06-24T03:30:00.399Z,81.46
2018-06-24T03:30:40.887Z,81.37
2018-06-24T03:31:21.332Z,81.66
2018-06-24T03:32:01.730Z,81.08
2018-06-24T03:32:42.106Z,80.7
2018-06-24T03:33:22.537Z,80.6
2018-06-24T03:34:02.860Z,80.22
2018-06-24T03:34:43.371Z,79.64
2018-06-24T03:35:23.691Z,79.74
2018-06-24T03:36:04.088Z,79.64
2018-06-24T03:36:44.443Z,79.74
2018-06-24T03:37:24.912Z,79.55
2018-06-24T03:38:05.278Z,79.93
2018-06-24T03:38:45.653Z,79.55
2018-06-24T03:39:26.079Z,79.93
2018-06-24T03:40:06.486Z,79.83
2018-06-24T03:40:46.825Z,79.74
2018-06-24T03:41:27.237Z,79.36
2018-06-24T03:42:07.687Z,79.74
2018-06-24T03:42:48.040Z,79.07
2018-06-24T03:43:28.491Z,79.16
2018-06-24T03:44:08.915Z,79.55
2018-06-24T03:44:49.323Z,78.97
2018-06-24T03:45:29.666Z,79.16
2018-06-24T03:46:10.077Z,78.97
2018-06-24T03:46:50.456Z,78.78
2018-06-24T03:47:30.832Z,79.07
2018-06-24T03:48:11.282Z,79.07
2018-06-24T03:48:51.614Z,78.97
2018-06-24T03:49:32.067Z,78.97
2018-06-24T03:50:12.444Z,79.07
2018-06-24T03:50:52.880Z,79.07
2018-06-24T03:51:33.326Z,79.16
2018-06-24T03:52:13.694Z,79.11
2018-06-24T03:52:54.071Z,79.07
2018-06-24T03:53:34.455Z,79.3
2018-06-24T03:54:15.016Z,79.07
2018-06-24T03:54:55.369Z,79.36
2018-06-24T03:55:35.729Z,78.82
2018-06-24T03:56:16.097Z,78.15
2018-06-24T03:56:56.508Z,78.53
2018-06-24T03:57:36.919Z,78.25
2018-06-24T03:58:17.336Z,78.15
2018-06-24T03:58:57.732Z,78.92
2018-06-24T03:59:38.156Z,78.72
2018-06-24T04:00:18.616Z,78.34
2018-06-24T04:00:58.951Z,78.34
2018-06-24T04:01:39.452Z,78.92
2018-06-24T04:02:19.833Z,78.59
2018-06-24T04:03:00.192Z,78.69
2018-06-24T04:03:40.579Z,79.11
2018-06-24T04:46:04.257Z,79.21
2018-06-24T04:46:44.413Z,78.57
2018-06-24T04:47:24.808Z,77.42
2018-06-24T04:48:05.280Z,76.75
2018-06-24T04:48:45.685Z,75.79
2018-06-24T04:49:26.071Z,75.54
2018-06-24T04:50:06.425Z,75.5
2018-06-24T04:50:46.902Z,75.6
2018-06-24T04:51:27.270Z,75.5
2018-06-24T04:52:07.668Z,75.98
2018-06-24T04:52:48.039Z,75.6
2018-06-24T04:53:28.441Z,75.45
2018-06-24T04:54:08.987Z,75.35
2018-06-24T04:54:49.407Z,74.87
2018-06-24T04:55:29.789Z,73.81
2018-06-24T04:56:10.191Z,73.75
2018-06-24T04:56:50.618Z,73.27
2018-06-24T04:57:31.082Z,73.27
2018-06-24T04:58:11.389Z,72.79
2018-06-24T04:58:51.808Z,72.44
2018-06-24T04:59:32.194Z,72.25
2018-06-24T05:00:12.599Z,71.29
2018-06-24T05:00:53.040Z,70.27
2018-06-24T05:01:33.450Z,70.27
2018-06-24T05:02:13.796Z,69.98
2018-06-24T05:02:54.303Z,70.07
2018-06-24T05:03:34.695Z,69.4
2018-06-24T05:04:15.092Z,69.6
2018-06-24T05:04:55.473Z,69.31
2018-06-24T05:05:35.901Z,69.98
2018-06-24T05:06:16.322Z,69.79
2018-06-24T05:06:56.716Z,70.07
2018-06-24T05:07:37.120Z,70.23
2018-06-24T05:08:17.501Z,70.23
2018-06-24T05:08:57.879Z,70.14
2018-06-24T05:09:38.284Z,70.23
2018-06-24T05:10:18.706Z,70.9
2018-06-24T05:10:59.114Z,71.1
2018-06-24T05:11:39.494Z,71.19
2018-06-24T05:12:19.878Z,71
2018-06-24T05:13:00.289Z,71.39
2018-06-24T05:13:40.700Z,71.77
2018-06-24T05:14:21.118Z,71.77
2018-06-24T05:15:01.542Z,71.58
2018-06-24T05:15:41.981Z,71.39
2018-06-24T05:16:22.279Z,71.19
2018-06-24T05:17:02.788Z,71.29
2018-06-24T05:17:43.114Z,71.29
2018-06-24T05:18:23.597Z,71.39
2018-06-24T05:19:04.016Z,71.52
2018-06-24T05:19:44.355Z,71.48
2018-06-24T05:20:24.780Z,71.1
2018-06-24T05:21:05.150Z,70.52
2018-06-24T05:21:45.559Z,70.65
2018-06-24T05:22:26.014Z,70.27
2018-06-24T05:23:06.482Z,70.72
2018-06-24T05:23:46.821Z,71.42
2018-06-24T05:24:27.216Z,71.23
2018-06-24T05:25:07.636Z,71.81
2018-06-24T05:25:48.090Z,71.71
2018-06-24T05:26:28.469Z,71.81
2018-06-24T05:27:08.818Z,71.61
2018-06-24T05:27:49.258Z,71.14
2018-06-24T05:28:29.712Z,70.94
2018-06-24T05:29:10.122Z,70.65
2018-06-24T05:29:50.495Z,70.65
2018-06-24T05:30:30.881Z,71.23
2018-06-24T05:31:11.368Z,71.14
2018-06-24T05:31:51.768Z,70.75
2018-06-24T05:32:32.570Z,70.75
2018-06-24T05:33:13.143Z,70.94
2018-06-24T05:33:53.475Z,70.27
2018-06-24T05:34:33.906Z,69.98
2018-06-24T05:35:14.838Z,70.46
2018-06-24T05:35:55.323Z,69.89
2018-06-24T05:36:35.668Z,69.82
2018-06-24T05:37:16.106Z,69.53
2018-06-24T05:37:56.541Z,69.73
2018-06-24T05:38:36.835Z,69.06
2018-06-24T05:39:17.267Z,68.96
2018-06-24T05:39:57.709Z,68.22
2018-06-24T05:40:38.162Z,67.16
2018-06-24T05:41:18.902Z,66.24
2018-06-24T05:41:59.293Z,65.11
2018-06-24T05:42:39.756Z,63.7
2018-06-24T05:43:21.032Z,62.48
2018-06-24T05:44:01.347Z,60.77
2018-06-24T05:44:41.789Z,59.9
2018-06-24T05:45:22.914Z,59.06
2018-06-24T05:46:03.232Z,58.22
2018-06-24T05:46:43.669Z,57.16
2018-06-24T05:47:24.115Z,56.9
2018-06-24T05:48:04.468Z,55.67
2018-06-24T05:48:44.935Z,54.99
2018-06-24T05:49:25.299Z,54.44
2018-06-24T05:50:05.669Z,52.7
2018-06-24T05:50:46.168Z,52.05
2018-06-24T05:51:27.273Z,51.88
2018-06-24T05:52:07.718Z,51.88
2018-06-24T05:52:48.303Z,51.2
2018-06-24T05:53:28.675Z,50.84
2018-06-24T05:54:09.941Z,49.49
2018-06-24T05:54:50.414Z,49.22
2018-06-24T05:55:30.834Z,49.22
2018-06-24T05:56:11.184Z,48.85
2018-06-24T05:56:51.594Z,48.47
2018-06-24T05:57:32.107Z,47.62
2018-06-24T05:58:12.464Z,47.33
2018-06-24T05:58:53.241Z,47.13
2018-06-24T05:59:33.679Z,46.86
2018-06-24T06:00:14.312Z,45.87
2018-06-24T06:00:54.928Z,46.28
2018-06-24T06:01:35.332Z,46.07
2018-06-24T06:02:15.978Z,46.07
2018-06-24T06:02:56.264Z,45.48
2018-06-24T06:03:36.617Z,46.33
2018-06-24T06:04:17.026Z,46.24
2018-06-24T06:04:57.476Z,47.2
2018-06-24T06:05:37.947Z,46.14
2018-06-24T06:06:18.497Z,46.92
2018-06-24T06:06:58.910Z,46.33
2018-06-24T06:07:39.308Z,46.43
2018-06-24T06:08:19.717Z,47.3
2018-06-24T06:09:00.624Z,46.8
2018-06-24T06:09:40.675Z,47.09
2018-06-24T06:10:21.321Z,46.7
2018-06-24T06:11:02.153Z,47.19
2018-06-24T06:11:42.717Z,46.89
2018-06-24T06:12:23.151Z,47.67
2018-06-24T06:13:03.495Z,47.77
2018-06-24T06:13:44.085Z,47.19
2018-06-24T06:14:24.359Z,46.99
2018-06-24T06:15:04.745Z,46.14
2018-06-24T06:15:45.220Z,46.89
2018-06-24T06:16:25.672Z,46.6
2018-06-24T06:17:06.036Z,46.8
2018-06-24T06:17:46.455Z,46.62
2018-06-24T06:18:26.888Z,46.8
2018-06-24T06:19:07.241Z,46.24
2018-06-24T06:19:47.660Z,46.14
2018-06-24T06:20:28.069Z,46.24
2018-06-24T06:21:08.505Z,46.04
2018-06-24T06:21:48.949Z,46.72
2018-06-24T06:22:29.416Z,46.04
2018-06-24T06:23:09.913Z,46.04
2018-06-24T06:23:50.244Z,46.33
2018-06-24T06:24:30.721Z,45.95
2018-06-24T06:25:11.165Z,46.24
2018-06-24T06:25:52.118Z,46.14
2018-06-24T06:26:32.571Z,45.95
2018-06-24T06:27:12.934Z,46.14
2018-06-24T06:27:53.320Z,46.24
2018-06-24T06:28:33.778Z,46.43
2018-06-24T06:29:14.197Z,46.92
2018-06-24T06:29:54.594Z,46.04
2018-06-24T06:30:35.152Z,45.85
2018-06-24T06:31:15.436Z,45.97
2018-06-24T06:31:55.889Z,45.29
2018-06-24T06:32:36.196Z,45.78
2018-06-24T06:33:16.635Z,45.47
2018-06-24T06:33:57.018Z,45.85
2018-06-24T06:34:37.478Z,45.95
2018-06-24T06:35:17.874Z,45.85
2018-06-24T06:35:58.535Z,46.04
2018-06-24T06:36:38.819Z,45.75
2018-06-24T06:37:20.778Z,45.47
2018-06-24T06:38:00.810Z,45.47
2018-06-24T06:38:41.238Z,45.68
2018-06-24T06:39:21.608Z,45.48
2018-06-24T06:40:02.441Z,45.48
2018-06-24T06:40:42.898Z,45.29
2018-06-24T06:41:23.464Z,45.2
2018-06-24T06:42:03.743Z,45.48
2018-06-24T06:42:44.206Z,45.29
2018-06-24T06:43:24.629Z,45.1
2018-06-24T06:44:05.116Z,45.48
2018-06-24T06:44:45.523Z,45.58
2018-06-24T06:45:26.554Z,45.68
2018-06-24T06:46:09.159Z,45.29
2018-06-24T06:46:49.792Z,45.17
2018-06-24T06:47:30.155Z,45.2
2018-06-24T06:48:10.491Z,45.58
2018-06-24T06:48:50.879Z,45.68
2018-06-24T06:49:31.228Z,45.75
2018-06-24T06:50:11.718Z,46.33
2018-06-24T06:50:52.178Z,45.85
2018-06-24T06:51:32.547Z,45.27
2018-06-24T06:52:14.100Z,45.75
2018-06-24T06:52:54.374Z,45.56
2018-06-24T06:53:34.887Z,45.92
2018-06-24T06:54:15.544Z,45.83
2018-06-24T06:54:56.066Z,45.83
2018-06-24T06:55:36.557Z,46.6
2018-06-24T06:56:18.019Z,46.7
2018-06-24T06:56:58.401Z,46.89
2018-06-24T06:57:38.835Z,46.99
2018-06-24T06:58:19.813Z,46.99
2018-06-24T06:59:00.963Z,47.06
2018-06-24T06:59:40.495Z,46.87
2018-06-24T07:00:20.914Z,47.16
2018-06-24T07:01:01.319Z,48.32
2018-06-24T07:01:41.999Z,48.13
2018-06-24T07:02:22.198Z,48.03
2018-06-24T07:03:02.628Z,47.84
2018-06-24T07:03:43.157Z,48.2
2018-06-24T07:04:23.542Z,48.49
2018-06-24T07:05:04.786Z,48.79
2018-06-24T07:05:45.398Z,48.59
2018-06-24T07:06:25.646Z,49.07
2018-06-24T07:07:07.175Z,49.17
2018-06-24T07:07:47.513Z,49.65
2018-06-24T07:08:28.248Z,49.46
2018-06-24T07:09:09.756Z,49.75
2018-06-24T07:09:50.034Z,49.85
2018-06-24T07:14:34.432Z,50.7
2018-06-24T07:15:14.983Z,50.98
2018-06-24T07:15:56.278Z,51.18
2018-06-24T07:16:36.842Z,50.98
2018-06-24T07:17:18.092Z,51.08
2018-06-24T07:17:58.914Z,51.15
2018-06-24T07:18:39.041Z,51.25
2018-06-24T07:19:19.393Z,51.54
2018-06-24T07:19:59.828Z,51.25
2018-06-24T07:20:40.326Z,51.35
2018-06-24T07:21:20.676Z,51.73
2018-06-24T07:22:01.101Z,51.83
2018-06-24T07:22:41.550Z,51.83
2018-06-24T07:23:21.899Z,51.64
2018-06-24T07:24:02.346Z,51.64
2018-06-24T07:24:49.669Z,51.73
2018-06-24T07:25:30.304Z,51.73
2018-06-24T07:26:10.880Z,52.02
2018-06-24T07:26:52.511Z,51.73
2018-06-24T07:27:33.021Z,50.96
2018-06-24T07:28:13.449Z,50.76
2018-06-24T07:28:53.878Z,50.79
2018-06-24T07:29:34.289Z,49.99
2018-06-24T07:30:14.655Z,49.92
2018-06-24T07:30:55.101Z,50.31
2018-06-24T07:31:35.972Z,51.08
2018-06-24T07:32:16.542Z,50.67
2018-06-24T07:32:56.953Z,50.67
2018-06-24T07:33:38.227Z,50.6
2018-06-24T07:34:18.404Z,50.57
2018-06-24T07:35:00.024Z,50.96
2018-06-24T07:35:40.373Z,50.7
2018-06-24T07:36:21.483Z,50.28
2018-06-24T07:37:02.624Z,50.76
2018-06-24T07:37:43.060Z,50.86
2018-06-24T07:38:23.544Z,51.06
2018-06-24T07:39:04.439Z,51.06
2018-06-24T07:39:44.911Z,51.51
2018-06-24T07:40:25.249Z,51.61
2018-06-24T07:41:05.626Z,51.61
2018-06-24T07:41:46.403Z,51.9
2018-06-24T07:42:27.053Z,51.61
2018-06-24T07:43:10.042Z,52.48
2018-06-24T07:43:50.490Z,52.77
2018-06-24T07:44:31.763Z,52.29
2018-06-24T07:45:12.240Z,52.29
2018-06-24T07:45:53.895Z,52.48
2018-06-24T07:46:35.900Z,52.87
2018-06-24T07:47:16.564Z,52.87
2018-06-24T07:47:57.538Z,52.58
2018-06-24T07:48:37.605Z,52.58
2018-06-24T07:49:18.007Z,53.25
2018-06-24T07:49:58.403Z,52.67
2018-06-24T07:50:38.774Z,52.77
2018-06-24T07:51:20.312Z,53.64
2018-06-24T07:52:01.074Z,52.87
2018-06-24T07:55:05.480Z,52.77
2018-06-24T07:55:49.479Z,52.67
2018-06-24T07:56:29.883Z,52.77
2018-06-24T07:57:10.257Z,52.29
2018-06-24T07:57:50.884Z,52.48
2018-06-24T07:58:31.213Z,52.48
2018-06-24T07:59:11.822Z,52.29
2018-06-24T07:59:52.400Z,52.58
2018-06-24T08:00:32.613Z,52.48
2018-06-24T08:01:13.571Z,52.67
2018-06-24T08:01:56.642Z,52.58
2018-06-24T08:02:37.154Z,52.65
2018-06-24T08:03:17.644Z,52.77
2018-06-24T08:03:59.256Z,52.94
2018-06-24T08:04:42.509Z,52.94
2018-06-24T08:05:22.912Z,53.23
2018-06-24T08:06:04.690Z,53.23
2018-06-24T08:06:45.577Z,53.61
2018-06-24T08:07:26.026Z,53.81
2018-06-24T08:08:07.451Z,53.71
2018-06-24T08:08:49.302Z,53.39
2018-06-24T08:09:29.737Z,54.19
2018-06-24T08:10:10.138Z,53.61
2018-06-24T08:10:50.677Z,53.78
2018-06-24T08:11:31.971Z,53.97
2018-06-24T08:12:17.326Z,53.97
2018-06-24T08:13:00.277Z,54.27
2018-06-24T08:13:42.402Z,54.36
2018-06-24T08:14:22.973Z,54.46
2018-06-24T08:15:03.605Z,54.24
2018-06-24T08:15:44.153Z,54.84
2018-06-24T08:16:24.991Z,54.33
2018-06-24T08:17:06.697Z,54.36
2018-06-24T08:22:18.196Z,55.78
2018-06-24T08:22:58.472Z,55.88
2018-06-24T08:23:39.707Z,55.98
2018-06-24T08:24:20.015Z,55.68
2018-06-24T08:25:00.660Z,55.88
2018-06-24T08:28:32.778Z,55.3
2018-06-24T08:29:12.917Z,55.88
2018-06-24T08:29:53.362Z,55.88
2018-06-24T08:30:33.760Z,55.49
2018-06-24T08:31:14.149Z,55.3
2018-06-24T08:31:54.572Z,55.1
2018-06-24T08:32:35.373Z,55.49
2018-06-24T08:33:15.529Z,55.68
2018-06-24T08:33:55.885Z,55.88
2018-06-24T08:34:36.285Z,55.98
2018-06-24T08:35:19.136Z,55.98
2018-06-24T08:36:03.127Z,55.98
2018-06-24T08:36:43.737Z,56.07
2018-06-24T08:37:24.156Z,55.68
2018-06-24T08:38:04.440Z,55.2
2018-06-24T08:38:45.311Z,55.68
2018-06-24T08:39:25.666Z,54.82
2018-06-24T08:40:06.332Z,55.01
2018-06-24T08:42:59.211Z,54.43
2018-06-24T08:43:41.030Z,54.36
2018-06-24T08:44:21.828Z,54.17
2018-06-24T08:45:02.176Z,54.36
2018-06-24T08:45:42.632Z,54.65
2018-06-24T08:46:23.117Z,54.46
2018-06-24T08:47:03.599Z,54.46
2018-06-24T08:47:45.682Z,54.55
2018-06-24T08:48:26.298Z,54.75
2018-06-24T08:49:07.417Z,54.36
2018-06-24T08:49:48.912Z,54.27
2018-06-24T08:50:29.449Z,52.89
2018-06-24T08:51:10.203Z,52.79
2018-06-24T08:51:51.121Z,52.79
2018-06-24T08:52:31.481Z,53.47
2018-06-24T08:53:12.412Z,53.47
2018-06-24T08:53:54.368Z,53.37
2018-06-24T08:54:36.443Z,53.27
2018-06-24T08:55:16.533Z,53.17
2018-06-24T09:01:52.563Z,53.27
2018-06-24T09:02:35.013Z,53.37
2018-06-24T09:03:15.680Z,53.85
2018-06-24T09:03:59.962Z,53.85
2018-06-24T09:04:41.572Z,53.75
2018-06-24T09:05:22.816Z,53.75
2018-06-24T09:06:03.783Z,53.47
2018-06-24T09:06:44.898Z,52.98
2018-06-24T09:07:27.321Z,53.75
2018-06-24T09:08:09.145Z,53.27
2018-06-24T09:08:50.192Z,52.89
2018-06-24T09:09:32.044Z,52.69
2018-06-24T09:10:13.023Z,52.89
2018-06-24T09:12:35.100Z,52.69
2018-06-24T09:13:15.810Z,52.79
2018-06-24T09:13:56.056Z,52.79
2018-06-24T09:14:36.825Z,52.69
2018-06-24T09:15:17.483Z,52.11
2018-06-24T09:15:59.952Z,51.65
2018-06-24T09:16:40.474Z,52.23
2018-06-24T09:17:20.926Z,52.33
2018-06-24T09:18:01.351Z,51.82
2018-06-24T09:18:41.732Z,51.65
2018-06-24T09:19:22.769Z,51.65
2018-06-24T09:20:02.896Z,52.23
2018-06-24T09:20:43.355Z,51.75
2018-06-24T09:21:23.925Z,51.75
2018-06-24T09:22:04.549Z,51.56
2018-06-24T09:22:44.848Z,51.75
2018-06-24T09:23:25.232Z,51.59
2018-06-24T09:24:05.898Z,50.91
2018-06-24T09:24:46.220Z,50.91
2018-06-24T09:25:26.725Z,50.07
2018-06-24T09:26:07.630Z,50.26
2018-06-24T09:26:50.778Z,49.77
2018-06-24T09:27:33.312Z,49.68
2018-06-24T09:28:14.242Z,49.1
2018-06-24T09:30:27.793Z,49.58
2018-06-24T09:31:09.544Z,49.1
2018-06-24T09:31:50.401Z,49.1
2018-06-24T09:32:31.774Z,49.49
2018-06-24T09:33:17.580Z,48.9
2018-06-24T09:34:00.767Z,48.93
2018-06-24T09:34:41.947Z,48.71
2018-06-24T09:35:21.852Z,48.16
2018-06-24T09:36:02.986Z,47.38
2018-06-24T09:36:43.508Z,47.67
2018-06-24T09:37:24.040Z,47.31
2018-06-24T09:38:04.372Z,46.92
2018-06-24T09:38:45.292Z,46.63
2018-06-24T09:39:26.722Z,46.73
2018-06-24T09:40:08.867Z,46.36
2018-06-24T09:40:49.929Z,45.86
2018-06-24T09:41:31.127Z,46.08
2018-06-24T09:42:13.234Z,46.08
2018-06-24T09:42:52.956Z,45.78
2018-06-24T09:43:33.486Z,45.4
2018-06-24T09:44:13.925Z,45.59
2018-06-24T09:44:54.436Z,44.81
2018-06-24T09:45:35.993Z,44.62
2018-06-24T09:46:15.935Z,45.3
2018-06-24T09:46:57.691Z,45.2
2018-06-24T09:47:38.123Z,45.49
2018-06-24T09:48:20.469Z,45.49
2018-06-24T09:50:39.598Z,44.35
2018-06-24T09:51:19.751Z,44.64
2018-06-24T09:52:00.246Z,44.67
2018-06-24T09:52:40.728Z,43.68
2018-06-24T09:53:21.037Z,44.16
2018-06-24T09:54:02.435Z,43.96
2018-06-24T09:54:43.854Z,44.16
2018-06-24T09:55:24.231Z,44.26
2018-06-24T09:56:04.641Z,44.35
2018-06-24T09:56:45.597Z,43.58
2018-06-24T09:57:27.563Z,43.77
2018-06-24T09:58:11.844Z,43.38
2018-06-24T09:58:52.333Z,43.19
2018-06-24T09:59:35.257Z,43.19
2018-06-24T10:00:18.075Z,42.9
2018-06-24T10:01:00.727Z,42.13